Time;durP1;ratioP1;P1;durP2;ratioP2;P2;SDS_P1;SDS_P2;PMS_P1;PMS_P2;Temp;Humidity;BMP_temperature;BMP_pressure;BME280_temperature;BME280_humidity;BME280_pressure;Samples;Min_cycle;Max_cycle;Signal;HPM_P1;HPM_P2
2020/12/16 00:00:23;;;;;;;30.50;27.30;;;8.40;99.90;;;;;;5080154;28;20448;-93
2020/12/16 00:02:49;;;;;;;29.53;25.60;;;8.40;99.90;;;;;;5072302;28;20541;-94
2020/12/16 00:05:16;;;;;;;29.60;26.43;;;8.40;99.90;;;;;;5088394;28;20447;-94
2020/12/16 00:07:43;;;;;;;33.93;26.10;;;8.40;99.90;;;;;;5078935;28;20532;-92
2020/12/16 00:10:11;;;;;;;26.63;23.90;;;8.50;99.90;;;;;;5092280;28;20462;-93
2020/12/16 00:12:38;;;;;;;29.23;25.63;;;8.50;99.90;;;;;;5083982;28;20878;-93
2020/12/16 00:15:05;;;;;;;29.53;25.40;;;8.40;99.90;;;;;;5082540;28;20477;-94
2020/12/16 00:17:32;;;;;;;27.07;24.23;;;8.50;99.90;;;;;;5077785;28;20447;-93
2020/12/16 00:19:59;;;;;;;24.87;22.27;;;8.50;99.90;;;;;;5076938;28;20463;-93
2020/12/16 00:22:26;;;;;;;25.40;22.80;;;8.50;99.90;;;;;;5062639;28;20467;-94
2020/12/16 00:24:53;;;;;;;28.70;23.23;;;8.60;99.90;;;;;;5074824;28;20443;-92
2020/12/16 00:27:19;;;;;;;25.03;22.40;;;8.50;99.90;;;;;;5068476;28;20523;-93
2020/12/16 00:29:45;;;;;;;26.30;23.50;;;8.50;99.90;;;;;;5087607;28;20534;-93
2020/12/16 00:32:12;;;;;;;23.90;21.37;;;8.40;99.90;;;;;;5083863;28;20484;-91
2020/12/16 00:34:38;;;;;;;26.97;24.07;;;8.40;99.90;;;;;;5079457;28;20435;-93
2020/12/16 00:37:04;;;;;;;26.63;23.93;;;8.40;99.90;;;;;;5072433;28;20436;-92
2020/12/16 00:39:31;;;;;;;26.17;23.57;;;8.40;99.90;;;;;;5073509;28;20435;-93
2020/12/16 00:41:58;;;;;;;27.03;24.13;;;8.40;99.90;;;;;;5067157;28;20936;-93
2020/12/16 00:44:24;;;;;;;25.43;22.73;;;8.30;99.90;;;;;;5078424;28;20444;-93
2020/12/16 00:46:50;;;;;;;31.30;26.63;;;8.30;99.90;;;;;;5082324;28;20463;-93
2020/12/16 00:49:17;;;;;;;27.50;24.60;;;8.40;99.90;;;;;;5082407;28;20486;-93
2020/12/16 00:51:43;;;;;;;29.17;26.07;;;8.30;99.90;;;;;;5085690;28;20466;-93
2020/12/16 00:54:10;;;;;;;30.27;26.00;;;8.40;99.90;;;;;;5096575;28;20498;-93
2020/12/16 00:56:37;;;;;;;28.27;25.40;;;8.40;99.90;;;;;;5086291;28;20438;-92
2020/12/16 00:59:03;;;;;;;31.10;25.17;;;8.50;99.90;;;;;;5106419;28;20423;-92
2020/12/16 01:01:32;;;;;;;26.03;23.40;;;8.50;99.90;;;;;;5084400;28;20627;-93
2020/12/16 01:03:59;;;;;;;30.03;26.90;;;8.50;99.90;;;;;;5080395;28;20533;-94
2020/12/16 01:06:25;;;;;;;28.93;25.67;;;8.50;99.90;;;;;;5068312;28;20478;-93
2020/12/16 01:08:52;;;;;;;31.53;24.93;;;8.60;99.90;;;;;;5078218;28;20502;-94
2020/12/16 01:11:18;;;;;;;25.17;22.60;;;8.60;99.90;;;;;;5080029;28;20460;-94
2020/12/16 01:13:46;;;;;;;27.33;24.43;;;8.60;99.90;;;;;;5077579;28;20453;-94
2020/12/16 01:16:12;;;;;;;31.27;25.97;;;8.60;99.90;;;;;;5090331;28;20859;-93
2020/12/16 01:18:38;;;;;;;25.90;23.23;;;8.60;99.90;;;;;;5081483;28;20500;-92
2020/12/16 01:21:05;;;;;;;25.97;23.20;;;8.60;99.90;;;;;;5090212;28;20520;-95
2020/12/16 01:23:31;;;;;;;27.77;22.60;;;8.60;99.90;;;;;;5090609;28;20444;-93
2020/12/16 01:25:58;;;;;;;21.47;19.20;;;8.60;99.90;;;;;;5089598;28;20455;-93
2020/12/16 01:28:24;;;;;;;22.67;20.00;;;8.60;99.90;;;;;;5074915;28;20467;-93
2020/12/16 01:30:51;;;;;;;24.70;20.83;;;8.70;99.90;;;;;;5085120;28;20463;-93
2020/12/16 01:33:17;;;;;;;22.97;19.00;;;8.70;99.90;;;;;;5085637;28;20454;-93
2020/12/16 01:35:44;;;;;;;24.07;20.70;;;8.70;99.90;;;;;;5087615;28;20465;-93
2020/12/16 01:38:10;;;;;;;23.43;20.57;;;8.70;99.90;;;;;;5080736;28;20445;-93
2020/12/16 01:40:36;;;;;;;24.10;21.47;;;8.60;99.90;;;;;;5085616;28;20474;-94
2020/12/16 01:43:02;;;;;;;23.80;21.20;;;8.50;99.90;;;;;;5081382;28;20935;-93
2020/12/16 01:45:29;;;;;;;25.00;21.50;;;8.60;99.90;;;;;;5072635;28;20792;-94
2020/12/16 01:47:56;;;;;;;23.13;20.73;;;8.60;99.90;;;;;;5087086;28;20470;-93
2020/12/16 01:50:26;;;;;;;22.83;20.43;;;8.70;99.90;;;;;;5088213;28;20469;-93
2020/12/16 01:52:54;;;;;;;22.73;20.27;;;8.70;99.90;;;;;;5083589;28;20446;-92
2020/12/16 01:55:20;;;;;;;24.00;21.57;;;8.70;99.90;;;;;;5085038;28;20841;-93
2020/12/16 01:57:53;;;;;;;23.73;21.13;;;8.70;99.90;;;;;;5080646;28;20963;-94
2020/12/16 02:00:19;;;;;;;21.40;18.73;;;8.80;99.90;;;;;;5070260;28;20447;-94
2020/12/16 02:02:50;;;;;;;20.40;18.50;;;8.80;99.90;;;;;;5079424;28;20512;-92
2020/12/16 02:05:19;;;;;;;20.53;18.37;;;8.80;99.90;;;;;;5083126;28;20489;-94
2020/12/16 02:07:46;;;;;;;20.70;18.60;;;8.80;99.90;;;;;;5072184;28;20471;-92
2020/12/16 02:10:13;;;;;;;20.30;18.20;;;8.70;99.90;;;;;;5088080;28;20469;-94
2020/12/16 02:12:39;;;;;;;21.57;19.33;;;8.80;99.90;;;;;;5095287;28;20454;-95
2020/12/16 02:15:06;;;;;;;20.40;18.07;;;8.70;99.90;;;;;;5086648;28;20447;-94
2020/12/16 02:17:32;;;;;;;22.93;20.43;;;8.70;99.90;;;;;;5084197;28;20451;-93
2020/12/16 02:20:00;;;;;;;20.77;18.50;;;8.80;99.90;;;;;;5084647;28;20455;-93
2020/12/16 02:22:28;;;;;;;21.60;18.60;;;8.80;99.90;;;;;;5104989;28;20880;-93
2020/12/16 02:24:59;;;;;;;19.90;17.80;;;8.80;99.90;;;;;;5104022;28;20795;-94
2020/12/16 02:27:26;;;;;;;20.10;18.07;;;8.80;99.90;;;;;;5084017;28;20446;-93
2020/12/16 02:29:52;;;;;;;20.63;18.47;;;8.80;99.90;;;;;;5086465;28;21026;-94
2020/12/16 02:32:19;;;;;;;22.57;20.20;;;8.80;99.90;;;;;;5080062;28;20446;-93
2020/12/16 02:34:46;;;;;;;21.57;19.30;;;8.80;99.90;;;;;;5074754;28;20955;-93
2020/12/16 02:37:12;;;;;;;22.10;19.40;;;8.70;99.90;;;;;;5079289;28;20446;-93
2020/12/16 02:39:38;;;;;;;19.23;17.30;;;8.70;99.90;;;;;;5077731;28;20512;-93
2020/12/16 02:42:08;;;;;;;19.63;17.57;;;8.70;99.90;;;;;;5084627;28;20449;-92
2020/12/16 02:44:34;;;;;;;20.53;18.17;;;8.70;99.90;;;;;;5085097;28;20443;-92
2020/12/16 02:47:02;;;;;;;21.87;18.30;;;8.70;99.90;;;;;;5080042;28;20499;-93
2020/12/16 02:49:29;;;;;;;20.03;18.03;;;8.60;99.90;;;;;;5079740;28;20478;-94
2020/12/16 02:51:55;;;;;;;21.00;18.80;;;8.60;99.90;;;;;;5078298;28;20456;-92
2020/12/16 02:54:22;;;;;;;21.67;19.47;;;8.60;99.90;;;;;;5079645;28;20452;-94
2020/12/16 02:56:49;;;;;;;20.23;18.27;;;8.60;99.90;;;;;;5087900;28;20492;-94
2020/12/16 02:59:16;;;;;;;21.37;19.17;;;8.60;99.90;;;;;;5080048;28;20439;-94
2020/12/16 03:01:43;;;;;;;25.30;20.20;;;8.70;99.90;;;;;;5083206;28;20525;-92
2020/12/16 03:04:09;;;;;;;21.87;19.47;;;8.70;99.90;;;;;;5094780;28;20432;-92
2020/12/16 03:06:35;;;;;;;21.07;18.70;;;8.80;99.90;;;;;;5089991;28;20444;-94
2020/12/16 03:09:01;;;;;;;20.93;18.97;;;8.80;99.90;;;;;;5089907;28;21014;-93
2020/12/16 03:11:27;;;;;;;23.73;17.60;;;8.70;99.90;;;;;;5091483;28;20457;-94
2020/12/16 03:13:53;;;;;;;23.03;20.47;;;8.70;99.90;;;;;;5097841;28;20651;-93
2020/12/16 03:16:21;;;;;;;24.33;21.80;;;8.70;99.90;;;;;;5087290;28;20967;-94
2020/12/16 03:18:47;;;;;;;23.37;20.90;;;8.60;99.90;;;;;;5100521;28;20916;-94
2020/12/16 03:21:21;;;;;;;25.03;21.07;;;8.60;99.90;;;;;;5089386;28;20467;-94
2020/12/16 03:23:47;;;;;;;23.53;21.13;;;8.60;99.90;;;;;;5083090;28;20428;-93
2020/12/16 03:26:13;;;;;;;25.40;19.27;;;8.60;99.90;;;;;;5088739;28;20439;-94
2020/12/16 03:28:39;;;;;;;20.73;18.60;;;8.50;99.90;;;;;;5083114;28;20486;-93
2020/12/16 03:31:06;;;;;;;21.93;18.90;;;8.40;99.90;;;;;;5084230;28;20859;-94
2020/12/16 03:33:33;;;;;;;19.90;17.40;;;8.50;99.90;;;;;;5086143;28;20448;-94
2020/12/16 03:35:59;;;;;;;20.03;17.87;;;8.50;99.90;;;;;;5085472;28;20454;-93
2020/12/16 03:38:25;;;;;;;20.20;16.03;;;8.50;99.90;;;;;;5078378;28;20489;-93
2020/12/16 03:40:51;;;;;;;19.50;17.60;;;8.40;99.90;;;;;;5087126;28;20466;-94
2020/12/16 03:43:18;;;;;;;20.67;18.63;;;8.40;99.90;;;;;;5081509;28;20422;-93
2020/12/16 03:45:44;;;;;;;24.10;19.97;;;8.30;99.90;;;;;;5081970;28;20435;-91
2020/12/16 03:48:10;;;;;;;22.17;19.77;;;8.30;99.90;;;;;;5082260;28;20478;-90
2020/12/16 03:50:37;;;;;;;21.20;18.97;;;8.30;99.90;;;;;;5079650;28;21072;-90
2020/12/16 03:53:03;;;;;;;20.50;18.30;;;8.30;99.90;;;;;;5082447;28;20442;-90
2020/12/16 03:55:29;;;;;;;19.53;17.67;;;8.30;99.90;;;;;;5081249;28;20484;-90
2020/12/16 03:57:55;;;;;;;20.17;18.10;;;8.40;99.90;;;;;;5080058;28;20796;-91
2020/12/16 04:00:22;;;;;;;20.20;18.20;;;8.40;99.90;;;;;;5081160;28;20471;-91
2020/12/16 04:02:48;;;;;;;21.87;18.43;;;8.40;99.90;;;;;;5081382;28;20480;-92
2020/12/16 04:05:14;;;;;;;20.10;17.93;;;8.40;99.90;;;;;;5080346;28;20818;-91
2020/12/16 04:07:41;;;;;;;21.73;18.70;;;8.30;99.90;;;;;;5085669;28;20503;-90
2020/12/16 04:10:07;;;;;;;21.20;18.23;;;8.30;99.90;;;;;;5079445;28;20800;-91
2020/12/16 04:12:34;;;;;;;22.63;20.33;;;8.30;99.90;;;;;;5079426;28;20438;-91
2020/12/16 04:15:00;;;;;;;22.07;19.80;;;8.30;99.90;;;;;;5080564;28;20831;-91
2020/12/16 04:17:26;;;;;;;22.70;20.30;;;8.20;99.90;;;;;;5081037;28;20444;-91
2020/12/16 04:19:52;;;;;;;22.43;20.13;;;8.20;99.90;;;;;;5079294;28;20455;-91
2020/12/16 04:22:18;;;;;;;21.40;19.10;;;8.20;99.90;;;;;;5082392;28;20447;-91
2020/12/16 04:24:45;;;;;;;23.40;19.70;;;8.20;99.90;;;;;;5081332;28;20454;-92
2020/12/16 04:27:11;;;;;;;24.63;19.10;;;8.10;99.90;;;;;;5081737;28;20446;-90
2020/12/16 04:29:38;;;;;;;22.93;18.43;;;8.10;99.90;;;;;;5079859;28;20505;-90
2020/12/16 04:32:04;;;;;;;19.53;17.63;;;8.00;99.90;;;;;;5077371;28;20447;-91
2020/12/16 04:34:31;;;;;;;18.50;16.57;;;8.00;99.90;;;;;;5080883;28;20455;-90
2020/12/16 04:36:57;;;;;;;18.67;16.77;;;8.00;99.90;;;;;;5081862;28;20439;-90
2020/12/16 04:39:23;;;;;;;17.23;15.40;;;8.00;99.90;;;;;;5082417;28;20441;-90
2020/12/16 04:41:52;;;;;;;17.73;15.90;;;8.00;99.90;;;;;;5086341;28;20431;-92
2020/12/16 04:44:19;;;;;;;20.40;16.73;;;7.80;99.90;;;;;;5079589;28;20445;-92
2020/12/16 04:46:47;;;;;;;19.43;17.53;;;7.80;99.90;;;;;;5085817;28;20444;-93
2020/12/16 04:49:14;;;;;;;23.40;17.97;;;7.70;99.90;;;;;;5101184;28;21084;-93
2020/12/16 04:51:42;;;;;;;19.63;17.77;;;7.70;99.90;;;;;;5084650;28;20451;-94
2020/12/16 04:54:09;;;;;;;21.93;17.03;;;7.60;99.90;;;;;;5080213;28;20574;-93
2020/12/16 04:56:37;;;;;;;17.07;15.30;;;7.50;99.90;;;;;;5072042;28;20525;-92
2020/12/16 04:59:05;;;;;;;16.10;14.50;;;7.50;99.90;;;;;;5066305;28;20455;-94
2020/12/16 05:01:31;;;;;;;18.63;16.53;;;7.50;99.90;;;;;;5077822;28;20457;-94
2020/12/16 05:03:58;;;;;;;17.87;16.00;;;7.40;99.90;;;;;;5079829;28;20448;-93
2020/12/16 05:06:38;;;;;;;17.90;16.20;;;7.30;99.90;;;;;;5085329;28;20457;-92
2020/12/16 05:09:06;;;;;;;18.47;15.87;;;7.20;99.90;;;;;;5077474;28;20475;-93
2020/12/16 05:11:40;;;;;;;21.50;17.13;;;7.20;99.90;;;;;;5078981;28;20467;-93
2020/12/16 05:14:09;;;;;;;22.97;18.30;;;7.20;99.90;;;;;;5081480;28;20946;-93
2020/12/16 05:16:54;;;;;;;17.37;15.50;;;7.10;99.90;;;;;;5077712;28;20469;-93
2020/12/16 05:19:37;;;;;;;18.63;16.60;;;7.00;99.90;;;;;;5075315;28;20462;-93
2020/12/16 05:22:22;;;;;;;15.80;14.20;;;6.90;99.90;;;;;;5079566;28;20446;-93
2020/12/16 05:24:51;;;;;;;16.57;14.93;;;6.90;99.90;;;;;;5082863;28;20472;-93
2020/12/16 05:27:20;;;;;;;17.00;14.90;;;6.90;99.90;;;;;;5079436;28;20435;-93
2020/12/16 05:29:51;;;;;;;19.43;17.30;;;6.80;99.90;;;;;;5078913;28;20483;-93
2020/12/16 05:32:20;;;;;;;18.50;16.03;;;6.80;99.90;;;;;;5091971;28;20996;-93
2020/12/16 05:34:46;;;;;;;19.23;16.47;;;6.90;99.90;;;;;;5102971;28;20416;-93
2020/12/16 05:37:27;;;;;;;17.90;16.00;;;6.80;99.90;;;;;;5098043;28;20462;-93
2020/12/16 05:39:54;;;;;;;17.50;15.70;;;6.80;99.90;;;;;;5086672;28;20453;-91
2020/12/16 05:42:23;;;;;;;17.07;14.80;;;6.80;99.90;;;;;;5083407;28;20474;-94
2020/12/16 05:44:50;;;;;;;18.10;15.03;;;6.80;99.90;;;;;;5083909;28;20444;-92
2020/12/16 05:47:16;;;;;;;15.80;14.00;;;6.80;99.90;;;;;;5084328;28;20443;-94
2020/12/16 05:49:42;;;;;;;17.57;15.67;;;6.80;99.90;;;;;;5082237;28;20478;-92
2020/12/16 05:52:08;;;;;;;18.03;15.43;;;6.70;99.90;;;;;;5086090;28;20829;-94
2020/12/16 05:54:36;;;;;;;20.13;15.57;;;6.70;99.90;;;;;;5087286;28;20447;-93
2020/12/16 05:57:14;;;;;;;19.90;16.90;;;6.80;99.90;;;;;;5081978;28;20447;-91
2020/12/16 05:59:42;;;;;;;16.80;15.07;;;6.80;99.90;;;;;;5081480;28;20828;-94
2020/12/16 06:02:09;;;;;;;18.73;15.40;;;6.80;99.90;;;;;;5081015;28;20851;-92
2020/12/16 06:04:36;;;;;;;17.80;15.63;;;6.80;99.90;;;;;;5083842;28;20963;-92
2020/12/16 06:07:03;;;;;;;21.47;16.53;;;6.80;99.90;;;;;;5080624;28;20500;-93
2020/12/16 06:09:32;;;;;;;22.27;16.60;;;6.80;99.90;;;;;;5085122;28;20474;-93
2020/12/16 06:12:06;;;;;;;24.73;17.80;;;6.90;99.90;;;;;;5085042;28;20526;-92
2020/12/16 06:14:34;;;;;;;17.37;15.50;;;6.80;99.90;;;;;;5085122;28;20451;-93
2020/12/16 06:17:11;;;;;;;17.70;15.10;;;6.90;99.90;;;;;;5081100;28;20526;-92
2020/12/16 06:19:43;;;;;;;16.90;15.00;;;7.00;99.90;;;;;;5082471;28;20438;-92
2020/12/16 06:22:10;;;;;;;16.63;14.20;;;7.00;99.90;;;;;;5078532;28;20831;-93
2020/12/16 06:24:42;;;;;;;19.40;13.80;;;7.00;99.90;;;;;;5082359;28;20472;-92
2020/12/16 06:27:10;;;;;;;17.30;14.37;;;7.00;99.90;;;;;;5078180;28;20470;-93
2020/12/16 06:29:39;;;;;;;14.57;13.03;;;6.90;99.90;;;;;;5084424;28;20511;-93
2020/12/16 06:32:10;;;;;;;15.70;14.10;;;6.90;99.90;;;;;;5076962;28;20435;-93
2020/12/16 06:34:38;;;;;;;13.70;12.40;;;6.90;99.90;;;;;;5083698;28;21004;-93
2020/12/16 06:37:05;;;;;;;14.17;12.80;;;7.00;99.90;;;;;;5087447;28;20529;-90
2020/12/16 06:39:40;;;;;;;15.13;13.53;;;6.90;99.90;;;;;;5085758;28;20807;-92
2020/12/16 06:42:06;;;;;;;15.00;13.13;;;6.90;99.90;;;;;;5082220;28;20429;-91
2020/12/16 06:44:32;;;;;;;16.50;13.73;;;6.90;99.90;;;;;;5072630;28;20509;-92
2020/12/16 06:46:58;;;;;;;17.17;13.83;;;6.90;99.90;;;;;;5078653;28;20451;-92
2020/12/16 06:49:36;;;;;;;16.10;14.40;;;7.00;99.90;;;;;;5088017;28;20474;-92
2020/12/16 06:52:05;;;;;;;18.80;15.77;;;7.00;99.90;;;;;;5084547;28;20451;-91
2020/12/16 06:54:52;;;;;;;20.67;17.97;;;7.00;99.90;;;;;;5087965;28;20455;-92
2020/12/16 06:57:22;;;;;;;17.00;15.20;;;7.00;99.90;;;;;;5083420;28;20443;-92
2020/12/16 06:59:54;;;;;;;15.90;14.30;;;7.00;99.90;;;;;;5083997;28;20455;-91
2020/12/16 07:02:25;;;;;;;16.17;14.13;;;7.00;99.90;;;;;;5080773;28;20508;-91
2020/12/16 07:04:52;;;;;;;13.53;12.23;;;7.10;99.90;;;;;;5085319;28;20444;-92
2020/12/16 07:07:45;;;;;;;15.90;12.53;;;7.10;99.90;;;;;;5082961;28;20546;-89
2020/12/16 07:10:41;;;;;;;15.87;13.60;;;7.00;99.90;;;;;;5077850;28;20463;-90
2020/12/16 07:13:16;;;;;;;18.50;13.10;;;7.20;99.90;;;;;;5075829;28;20485;-92
2020/12/16 07:15:47;;;;;;;16.03;11.53;;;7.10;99.90;;;;;;5079390;28;20462;-91
2020/12/16 07:18:45;;;;;;;16.17;13.20;;;7.10;99.90;;;;;;5082270;28;20824;-91
2020/12/16 07:21:25;;;;;;;21.00;14.03;;;7.10;99.90;;;;;;5017785;28;20853;-91
2020/12/16 07:23:56;;;;;;;18.97;14.97;;;7.10;99.90;;;;;;5076903;28;20443;-92
2020/12/16 07:26:26;;;;;;;20.30;15.70;;;7.00;99.90;;;;;;5076005;28;20450;-92
2020/12/16 07:28:54;;;;;;;17.70;14.20;;;7.00;99.90;;;;;;5078884;28;20463;-92
2020/12/16 07:31:21;;;;;;;16.30;14.13;;;7.10;99.90;;;;;;5079891;28;20507;-90
2020/12/16 07:33:48;;;;;;;16.70;14.40;;;7.20;99.90;;;;;;5082820;28;20979;-92
2020/12/16 07:36:16;;;;;;;20.80;16.30;;;7.20;99.90;;;;;;5079107;28;20446;-92
2020/12/16 07:38:53;;;;;;;18.67;15.70;;;7.30;99.90;;;;;;5081919;28;20522;-91
2020/12/16 07:41:24;;;;;;;16.50;14.80;;;7.20;99.90;;;;;;5073246;28;20468;-92
2020/12/16 07:43:50;;;;;;;17.17;15.37;;;7.20;99.90;;;;;;5060640;28;20451;-91
2020/12/16 07:46:18;;;;;;;17.93;13.03;;;7.30;99.90;;;;;;5098282;28;20431;-92
2020/12/16 07:48:45;;;;;;;13.07;11.77;;;7.30;99.90;;;;;;5090978;28;20529;-91
2020/12/16 07:51:12;;;;;;;14.00;11.10;;;7.30;99.90;;;;;;5080886;28;20466;-92
2020/12/16 07:53:45;;;;;;;13.50;12.10;;;7.30;99.90;;;;;;5082110;28;20532;-91
2020/12/16 07:56:15;;;;;;;13.60;12.17;;;7.30;99.90;;;;;;5075853;28;20994;-91
2020/12/16 07:58:41;;;;;;;14.43;12.93;;;7.30;99.90;;;;;;5080456;28;20515;-91
2020/12/16 08:01:09;;;;;;;15.73;13.90;;;7.30;99.90;;;;;;5077360;28;20474;-91
2020/12/16 08:03:36;;;;;;;17.60;13.60;;;7.40;99.90;;;;;;5084306;28;20442;-91
2020/12/16 08:06:03;;;;;;;20.23;13.10;;;7.40;99.90;;;;;;5083475;28;20451;-92
2020/12/16 08:08:29;;;;;;;19.17;12.80;;;7.40;99.90;;;;;;5086391;28;20493;-92
2020/12/16 08:10:55;;;;;;;17.50;13.70;;;7.40;99.90;;;;;;5081529;28;20455;-91
2020/12/16 08:13:24;;;;;;;18.97;15.70;;;7.40;99.90;;;;;;5083548;28;20451;-92
2020/12/16 08:15:51;;;;;;;23.20;15.20;;;7.40;99.90;;;;;;5078977;28;20495;-92
2020/12/16 08:18:18;;;;;;;18.67;14.87;;;7.40;99.90;;;;;;5078986;28;20462;-92
2020/12/16 08:20:45;;;;;;;17.27;13.33;;;7.40;99.90;;;;;;5081008;28;20450;-85
2020/12/16 08:23:12;;;;;;;15.93;13.80;;;7.50;99.90;;;;;;5079827;28;20447;-87
2020/12/16 08:25:38;;;;;;;15.30;13.80;;;7.40;99.90;;;;;;5078991;28;20512;-86
2020/12/16 08:28:05;;;;;;;12.50;11.20;;;7.40;99.90;;;;;;5080050;28;20447;-85
2020/12/16 08:30:33;;;;;;;13.00;11.80;;;7.50;99.90;;;;;;5081019;28;20450;-85
2020/12/16 08:33:02;;;;;;;13.93;12.50;;;7.60;99.90;;;;;;5079773;28;20529;-85
2020/12/16 08:35:30;;;;;;;12.47;11.27;;;7.70;99.90;;;;;;5081358;28;20447;-85
2020/12/16 08:38:01;;;;;;;12.90;11.13;;;7.70;99.90;;;;;;5078863;28;20965;-84
2020/12/16 08:40:28;;;;;;;11.37;10.37;;;7.80;99.90;;;;;;5080085;28;20464;-86
2020/12/16 08:42:54;;;;;;;13.33;11.73;;;7.90;99.90;;;;;;5080399;28;20446;-86
2020/12/16 08:45:22;;;;;;;11.53;10.43;;;7.90;99.90;;;;;;5081427;28;20423;-86
2020/12/16 08:47:49;;;;;;;15.97;11.93;;;7.90;99.90;;;;;;5079510;28;21146;-87
2020/12/16 08:50:18;;;;;;;14.60;13.10;;;8.00;99.90;;;;;;5080555;28;20481;-86
2020/12/16 08:52:46;;;;;;;16.23;14.23;;;8.10;99.90;;;;;;5081290;28;20444;-86
2020/12/16 08:55:17;;;;;;;17.07;14.60;;;8.30;99.90;;;;;;5072677;28;20451;-87
2020/12/16 08:57:51;;;;;;;16.43;14.47;;;8.30;99.90;;;;;;5076736;28;20447;-86
2020/12/16 09:00:17;;;;;;;15.10;12.20;;;8.30;99.90;;;;;;5080345;28;20519;-87
2020/12/16 09:02:43;;;;;;;22.03;14.80;;;8.40;99.90;;;;;;5079249;28;20670;-87
2020/12/16 09:05:10;;;;;;;13.23;11.90;;;8.30;99.90;;;;;;5080200;28;20443;-86
2020/12/16 09:07:37;;;;;;;12.33;11.13;;;8.30;99.90;;;;;;5080103;28;20453;-87
2020/12/16 09:10:08;;;;;;;13.93;12.00;;;8.50;99.90;;;;;;5080757;28;20537;-86
2020/12/16 09:12:34;;;;;;;15.90;13.43;;;8.60;99.90;;;;;;5080127;28;20450;-87
2020/12/16 09:15:02;;;;;;;19.50;14.00;;;8.70;99.90;;;;;;5080376;28;20451;-87
2020/12/16 09:17:30;;;;;;;17.50;12.33;;;8.90;99.90;;;;;;5080348;28;20783;-86
2020/12/16 09:19:56;;;;;;;14.07;12.67;;;9.40;99.90;;;;;;5081549;28;20455;-87
2020/12/16 09:22:25;;;;;;;15.70;11.67;;;9.90;99.90;;;;;;5082462;28;20454;-87
2020/12/16 09:24:52;;;;;;;14.13;12.67;;;10.00;99.90;;;;;;5080423;28;20440;-87
2020/12/16 09:27:18;;;;;;;14.73;12.47;;;10.00;99.90;;;;;;5082300;28;20497;-87
2020/12/16 09:29:45;;;;;;;12.90;11.60;;;9.90;99.90;;;;;;5084413;28;20528;-86
2020/12/16 09:32:13;;;;;;;12.93;11.70;;;9.90;99.90;;;;;;5083412;28;20446;-86
2020/12/16 09:34:41;;;;;;;11.40;9.77;;;10.00;99.90;;;;;;5081851;28;20439;-86
2020/12/16 09:37:12;;;;;;;12.13;10.83;;;10.20;99.90;;;;;;5081381;28;20932;-86
2020/12/16 09:39:39;;;;;;;12.50;10.77;;;10.40;99.90;;;;;;5083589;28;20439;-86
2020/12/16 09:42:09;;;;;;;11.40;10.03;;;10.20;99.90;;;;;;5083020;28;20439;-86
2020/12/16 09:44:35;;;;;;;10.53;9.53;;;10.30;99.90;;;;;;5083834;28;20514;-86
2020/12/16 09:47:12;;;;;;;15.23;9.67;;;10.40;99.90;;;;;;5081827;28;20496;-86
2020/12/16 09:49:40;;;;;;;10.07;9.07;;;10.30;99.90;;;;;;5081381;28;20532;-86
2020/12/16 09:52:21;;;;;;;10.70;9.63;;;10.40;99.90;;;;;;5082869;28;20448;-86
2020/12/16 09:54:48;;;;;;;11.57;9.53;;;10.80;99.90;;;;;;5078177;28;20489;-87
2020/12/16 09:57:14;;;;;;;11.30;10.20;;;11.40;99.90;;;;;;5073260;28;21120;-86
2020/12/16 09:59:41;;;;;;;11.33;9.97;;;12.10;99.90;;;;;;5086724;28;20432;-86
2020/12/16 10:02:07;;;;;;;15.90;9.47;;;12.40;99.90;;;;;;5088912;28;20448;-87
2020/12/16 10:04:33;;;;;;;10.87;9.77;;;12.80;99.90;;;;;;5083724;28;20445;-86
2020/12/16 10:06:59;;;;;;;14.40;10.33;;;12.70;99.90;;;;;;5080024;28;20445;-87
2020/12/16 10:09:25;;;;;;;11.47;10.30;;;12.50;99.90;;;;;;5083004;28;20474;-88
2020/12/16 10:11:52;;;;;;;11.40;10.30;;;13.20;99.90;;;;;;5082623;28;20464;-89
2020/12/16 10:14:19;;;;;;;11.40;10.33;;;13.30;99.90;;;;;;5083812;28;20459;-85
2020/12/16 10:16:46;;;;;;;10.60;9.60;;;13.30;99.90;;;;;;5082066;28;20940;-85
2020/12/16 10:19:13;;;;;;;11.67;10.53;;;13.80;99.90;;;;;;5083479;28;20435;-86
2020/12/16 10:21:40;;;;;;;12.17;10.83;;;13.80;99.90;;;;;;5079542;28;21049;-87
2020/12/16 10:24:06;;;;;;;11.03;9.97;;;14.80;99.90;;;;;;5081454;28;20494;-86
2020/12/16 10:26:32;;;;;;;13.03;10.10;;;16.10;99.90;;;;;;5076679;28;20519;-86
2020/12/16 10:28:59;;;;;;;11.70;10.40;;;17.50;99.20;;;;;;5083531;28;20531;-85
2020/12/16 10:31:26;;;;;;;15.33;9.90;;;17.90;96.50;;;;;;5082709;28;20622;-84
2020/12/16 10:33:52;;;;;;;13.40;10.43;;;18.60;94.90;;;;;;5080867;28;20489;-87
2020/12/16 10:36:18;;;;;;;12.00;9.27;;;18.50;93.70;;;;;;5075364;28;21012;-86
2020/12/16 10:38:44;;;;;;;10.90;9.77;;;19.00;93.30;;;;;;5081331;28;20975;-86
2020/12/16 10:41:11;;;;;;;10.90;9.87;;;20.10;91.80;;;;;;5082260;28;20490;-87
2020/12/16 10:43:37;;;;;;;12.03;10.93;;;21.00;89.10;;;;;;5078299;28;20459;-88
2020/12/16 10:46:08;;;;;;;11.73;10.50;;;20.60;88.10;;;;;;5079492;28;20456;-88
2020/12/16 10:48:34;;;;;;;10.47;9.57;;;20.10;90.20;;;;;;5079539;28;20476;-86
2020/12/16 10:51:02;;;;;;;10.57;9.60;;;19.90;88.20;;;;;;5082474;28;20451;-87
2020/12/16 10:53:29;;;;;;;12.30;11.10;;;20.30;87.90;;;;;;5080568;28;20469;-86
2020/12/16 10:55:56;;;;;;;17.23;9.97;;;21.50;87.50;;;;;;5081679;28;20455;-87
2020/12/16 10:58:24;;;;;;;11.43;10.07;;;22.80;84.00;;;;;;5082890;28;20437;-85
2020/12/16 11:00:50;;;;;;;11.30;10.30;;;22.80;80.20;;;;;;5082072;28;20516;-86
2020/12/16 11:03:16;;;;;;;14.30;10.97;;;23.70;77.30;;;;;;5082938;28;20451;-87
2020/12/16 11:05:42;;;;;;;12.50;11.40;;;24.00;80.00;;;;;;5080257;28;20452;-86
2020/12/16 11:08:09;;;;;;;11.33;10.23;;;23.60;76.60;;;;;;5082679;28;20424;-86
2020/12/16 11:10:35;;;;;;;11.93;10.83;;;23.30;75.20;;;;;;5080251;28;20461;-86
2020/12/16 11:13:02;;;;;;;11.33;10.30;;;23.00;74.70;;;;;;5081849;28;20455;-88
2020/12/16 11:15:29;;;;;;;11.47;10.50;;;22.40;76.50;;;;;;5082372;28;20451;-86
2020/12/16 11:17:55;;;;;;;11.67;10.63;;;21.80;77.20;;;;;;5081155;28;20495;-84
2020/12/16 11:20:21;;;;;;;10.43;9.53;;;21.80;77.90;;;;;;5082434;28;20451;-87
2020/12/16 11:22:48;;;;;;;13.50;12.17;;;22.60;77.00;;;;;;5080446;28;20448;-87
2020/12/16 11:25:17;;;;;;;11.07;10.17;;;23.10;76.50;;;;;;5081855;28;20434;-87
2020/12/16 11:27:43;;;;;;;11.17;10.23;;;23.10;73.10;;;;;;5080950;28;20448;-87
2020/12/16 11:30:09;;;;;;;11.80;10.70;;;23.20;73.60;;;;;;5082349;28;20487;-86
2020/12/16 11:32:36;;;;;;;11.30;10.30;;;24.40;70.50;;;;;;5083792;28;20439;-86
2020/12/16 11:35:03;;;;;;;11.97;10.87;;;23.90;70.00;;;;;;5082765;28;20949;-88
2020/12/16 11:37:29;;;;;;;10.90;10.07;;;22.90;72.80;;;;;;5080281;28;20452;-87
2020/12/16 11:39:57;;;;;;;11.67;10.67;;;23.80;70.70;;;;;;5083580;28;20456;-90
2020/12/16 11:42:23;;;;;;;11.27;10.27;;;24.30;69.40;;;;;;5129183;22;21018;-86
2020/12/16 11:44:51;;;;;;;11.57;10.50;;;24.20;69.60;;;;;;5071567;28;20435;-86
2020/12/16 11:47:19;;;;;;;11.77;10.60;;;24.30;69.90;;;;;;5071366;28;20990;-86
2020/12/16 11:49:46;;;;;;;12.00;10.83;;;24.50;68.50;;;;;;5068711;28;20478;-86
2020/12/16 11:52:12;;;;;;;12.20;11.20;;;24.00;68.40;;;;;;5050745;28;20449;-86
2020/12/16 11:54:38;;;;;;;11.67;10.67;;;23.40;70.30;;;;;;5048247;28;20908;-90
2020/12/16 11:57:05;;;;;;;13.00;11.63;;;23.90;69.10;;;;;;5050687;28;20496;-85
2020/12/16 11:59:31;;;;;;;13.93;11.60;;;24.30;69.20;;;;;;5051046;28;20489;-85
2020/12/16 12:01:58;;;;;;;14.60;11.77;;;23.80;69.50;;;;;;5050987;28;20948;-86
2020/12/16 12:04:25;;;;;;;13.03;11.90;;;23.80;70.30;;;;;;5051103;28;20445;-85
2020/12/16 12:06:52;;;;;;;13.77;11.50;;;24.30;69.30;;;;;;5050849;28;20455;-86
2020/12/16 12:09:18;;;;;;;13.00;11.87;;;24.60;68.00;;;;;;5051304;28;20584;-86
2020/12/16 12:11:45;;;;;;;11.00;10.03;;;24.50;66.90;;;;;;5051383;28;20474;-86
2020/12/16 12:14:11;;;;;;;12.53;11.43;;;24.40;67.70;;;;;;5055906;28;20437;-86
2020/12/16 12:16:37;;;;;;;14.73;11.40;;;24.00;68.90;;;;;;5069702;28;20450;-86
2020/12/16 12:19:03;;;;;;;13.30;12.10;;;24.00;68.20;;;;;;5052625;28;20441;-86
2020/12/16 12:21:29;;;;;;;15.77;13.00;;;23.70;68.30;;;;;;5050857;28;20473;-86
2020/12/16 12:23:56;;;;;;;11.93;10.83;;;24.30;68.70;;;;;;5051047;28;20450;-87
2020/12/16 12:26:23;;;;;;;13.20;11.90;;;24.70;67.00;;;;;;5048882;28;20454;-86
2020/12/16 12:28:49;;;;;;;14.60;12.27;;;24.30;66.40;;;;;;5051187;28;20473;-86
2020/12/16 12:31:15;;;;;;;12.80;11.60;;;23.60;67.70;;;;;;5051015;28;20462;-87
2020/12/16 12:33:41;;;;;;;14.23;11.80;;;22.20;69.50;;;;;;5049807;28;20440;-86
2020/12/16 12:36:08;;;;;;;12.70;11.60;;;21.40;73.30;;;;;;5050339;28;20440;-86
2020/12/16 12:38:34;;;;;;;16.20;11.43;;;20.40;75.30;;;;;;5050004;28;20494;-87